x

8452951 - Potter Cove, Prudence Island, Ri (ptcr1) Weather Station

6:54 - Tue 19th Sep 2017 All times are EDT. -4 hours from GMT.

  • Wind
    11mph, 16mph gusts
  • Luft Temp 66°f
  • Sea Pressure 1018.2mb
  • 8452951 - Potter Cove, Prudence Island, Ri
  • 8452951 - Potter Cove, Prudence Island, Ri

More Historic Weather Station data

Upgrade to MSW Pro to gain access to the past 30 days of data for over 8000 Wavebouys and Weather Stations around the globe.

Join

Comparision Forecast

View Surf forecast
   
Di 09/19 6:54 11 16 mph 1018.2mb 66f
6:48 14 17 mph 1018.2mb 66f
6:42 13 18 mph 1018.2mb 66f
6:36 14 18 mph 1018.2mb 66f
6:30 11 17 mph 1018.2mb 66f
6:24 11 15 mph 1018.3mb 66f
6:18 11 17 mph 1018.2mb 66f
6:12 11 17 mph 1018.1mb 66f
6:06 11 17 mph 1018.2mb 66f
6:00 13 18 mph 1018.2mb 66f
5:54 14 18 mph 1018.2mb 66f
5:48 13 18 mph 1018.2mb 66f
5:42 14 20 mph 1018mb 66f
5:36 14 20 mph 1018mb 66f
5:30 11 17 mph 1018.1mb 66f
5:24 14 18 mph 1018.1mb 66f
5:18 14 20 mph 1018.1mb 66f
5:12 14 18 mph 1018.1mb 66f
5:06 14 20 mph 1018.1mb 66f
5:00 14 20 mph 1018.2mb 66f
4:54 14 18 mph 1018.3mb 66f
4:48 13 18 mph 1018.4mb 66f
4:42 14 18 mph 1018.4mb 66f
4:36 11 17 mph 1018.4mb 66f
4:30 13 20 mph 1018.5mb 66f
4:24 13 18 mph 1018.5mb 66f
4:18 13 17 mph 1018.6mb 66f
4:12 13 20 mph 1018.7mb 66f
4:06 10 14 mph 1018.6mb 66f
4:00 11 18 mph 1018.7mb 66f
3:54 10 16 mph 1018.8mb 66f
3:48 11 15 mph 1018.9mb 66f
3:42 10 15 mph 1018.9mb 66f
3:36 10 14 mph 1018.9mb 66f
3:30 11 15 mph 1018.9mb 66f
3:24 10 16 mph 1018.8mb 66f
3:18 11 16 mph 1018.7mb 67f
3:12 11 16 mph 1018.6mb 67f
3:06 11 17 mph 1018.7mb 67f
3:00 10 15 mph 1018.8mb 67f
2:54 10 15 mph 1018.9mb 67f
2:48 11 16 mph 1018.9mb 67f
2:42 11 17 mph 1018.9mb -
2:36 13 17 mph 1018.9mb -
2:30 11 18 mph 1018.8mb 67f
2:24 11 17 mph 1018.9mb 67f
2:18 11 16 mph 1019.1mb 67f
2:12 11 16 mph 1019.1mb 67f
2:06 10 14 mph 1019.1mb 67f
2:00 11 16 mph 1019.2mb 67f
1:54 10 15 mph 1019.2mb 67f
1:48 11 15 mph 1019.2mb 67f
1:42 11 16 mph 1019.2mb 67f
1:36 10 15 mph 1019.3mb 67f
1:30 8 14 mph 1019.4mb 67f
1:24 9 14 mph 1019.5mb 67f
1:18 9 14 mph 1019.6mb 66f
1:12 9 14 mph 1019.6mb 66f
1:06 10 14 mph 1019.7mb 66f
1:00 9 14 mph 1019.7mb 66f
12:54 10 16 mph 1019.8mb 66f
12:48 11 16 mph 1019.8mb 66f
12:42 10 15 mph 1019.8mb 66f
12:36 10 15 mph 1019.7mb 66f
12:30 10 14 mph 1019.8mb 66f
12:24 9 14 mph 1019.7mb 66f
12:18 10 15 mph 1019.8mb 66f
12:12 9 15 mph 1019.8mb 66f
12:06 10 14 mph 1019.8mb 67f
12:00 11 15 mph 1019.8mb 67f
Mo 09/18 11:54 9 16 mph 1020mb 66f
11:48 10 15 mph - -
11:42 10 14 mph 1020mb 67f
11:36 11 16 mph 1020.1mb 67f
11:30 11 15 mph 1020.1mb 66f
11:24 10 14 mph 1020.2mb 66f
11:18 11 15 mph 1020.3mb 67f
11:12 10 15 mph 1020.2mb 67f
11:06 11 15 mph 1020.2mb 67f
11:00 11 15 mph 1020.2mb 67f
10:54 9 14 mph 1020.2mb 67f
10:48 10 15 mph 1020.3mb 67f
10:42 8 11 mph 1020.3mb 67f
10:36 8 14 mph 1020.4mb 67f
10:30 9 13 mph 1020.3mb 67f
10:24 9 14 mph 1020.4mb 67f
10:18 10 15 mph 1020.4mb 67f
10:12 9 14 mph 1020.4mb 67f
10:06 9 14 mph 1020.4mb 67f
10:00 9 14 mph 1020.4mb 67f
9:54 10 14 mph 1020.3mb 67f
9:48 10 14 mph 1020.4mb -
9:42 10 14 mph 1020.4mb 67f
9:36 9 13 mph 1020.3mb 68f
9:30 10 14 mph 1020.4mb 68f
9:24 8 11 mph 1020.5mb 68f
9:18 7 9 mph 1020.5mb 68f
9:12 7 10 mph 1020.6mb 68f
9:06 7 10 mph 1020.7mb 68f
9:00 9 13 mph 1020.7mb 68f
8:48 8 13 mph - -
8:42 9 14 mph 1020.5mb 68f
8:36 9 13 mph 1020.5mb 69f
8:30 10 14 mph 1020.4mb 69f
8:24 10 15 mph 1020.4mb 69f
8:18 10 14 mph 1020.5mb 69f
8:12 9 13 mph 1020.5mb 69f
8:06 9 13 mph 1020.6mb 69f
8:00 9 13 mph 1020.5mb 69f
7:54 8 11 mph 1020.4mb 69f
7:48 8 11 mph - -
7:42 9 11 mph - -
7:36 7 10 mph - -
7:30 7 9 mph 1020.3mb 69f
7:24 9 13 mph 1020.2mb 69f
7:18 9 14 mph 1020mb 69f
7:12 8 11 mph 1019.9mb 69f
7:06 8 11 mph 1019.9mb 69f
7:00 9 13 mph 1019.9mb 69f
6:54 9 13 mph 1019.9mb 69f
6:48 9 13 mph - -
6:42 8 11 mph 1020mb 69f
6:36 8 11 mph 1020mb 69f
6:30 8 11 mph 1020mb 70f
6:24 9 14 mph 1019.9mb 70f
6:18 9 14 mph 1019.9mb 70f
6:12 9 11 mph 1019.8mb 70f
6:06 9 11 mph 1019.8mb 70f
6:00 9 13 mph 1019.9mb 70f
5:54 7 11 mph 1019.9mb 70f
5:48 7 10 mph 1019.9mb -
5:42 8 11 mph 1019.9mb 71f
5:36 7 10 mph 1019.8mb 71f
5:30 8 11 mph 1019.8mb 71f
5:24 8 11 mph 1019.8mb 71f
5:18 8 10 mph 1019.8mb 71f
5:12 8 11 mph 1019.8mb 71f
5:06 8 11 mph 1019.9mb 71f
5:00 7 10 mph 1019.9mb 71f
4:54 8 10 mph 1019.9mb 71f
4:48 7 10 mph 1019.8mb 72f
4:42 8 10 mph 1019.8mb 71f
4:36 8 11 mph 1019.9mb 71f
4:30 7 10 mph 1019.9mb 71f
4:24 7 9 mph 1019.9mb 71f
4:18 7 9 mph 1020mb 71f
4:12 7 10 mph 1019.9mb 72f
4:06 9 11 mph 1019.9mb 72f
4:00 7 11 mph 1019.9mb 72f
3:54 8 11 mph 1019.9mb 72f
3:48 8 11 mph 1019.9mb 72f
3:42 8 13 mph 1020mb 72f
3:36 7 10 mph 1020.1mb 72f
3:30 7 10 mph 1020.2mb 71f
3:24 8 10 mph 1020.2mb 71f
3:18 8 14 mph 1020.3mb 71f
3:12 8 13 mph 1020.3mb 71f
3:06 9 13 mph 1020.3mb 71f
3:00 9 14 mph 1020.3mb 71f
2:42 9 13 mph 1020.2mb 72f
2:36 9 13 mph 1020.3mb 72f
2:30 7 13 mph 1020.3mb 72f
2:24 7 10 mph 1020.4mb 72f
2:18 7 9 mph 1020.4mb 72f
2:12 7 9 mph 1020.3mb 72f
2:06 8 11 mph 1020.3mb 72f
2:00 7 11 mph 1020.3mb 72f
1:54 7 10 mph 1020.3mb 72f
1:48 7 10 mph 1020.3mb 73f
1:42 7 10 mph 1020.4mb 73f
1:36 7 9 mph 1020.4mb 73f
1:30 7 10 mph 1020.4mb 73f
1:24 9 13 mph 1020.4mb 72f
1:18 8 13 mph 1020.6mb 72f
1:12 7 11 mph 1020.6mb 72f
1:06 7 10 mph 1020.5mb 73f
1:00 7 10 mph 1020.6mb 73f
12:54 7 10 mph 1020.7mb 73f
12:48 7 10 mph 1020.7mb 72f
12:42 8 11 mph 1020.8mb 72f
12:36 7 9 mph 1020.8mb 72f
12:30 7 9 mph 1020.9mb 72f
12:24 7 10 mph 1021mb 72f
12:18 6 8 mph 1021mb 72f
12:12 7 10 mph 1021mb 72f
12:06 6 9 mph 1021mb 73f
12:00 7 9 mph 1020.9mb 72f
11:54 5 7 mph 1020.9mb 72f
11:48 6 8 mph 1021mb 72f
11:42 6 8 mph 1021mb 72f
11:36 6 8 mph 1020.9mb 71f
11:30 6 8 mph 1020.9mb 72f
11:24 6 8 mph 1021mb 72f
11:18 6 8 mph 1021.1mb 71f
11:12 5 6 mph 1021.2mb 71f
11:06 5 8 mph 1021.3mb 71f
11:00 6 8 mph 1021.2mb 71f
10:54 5 7 mph 1021.2mb 71f
10:48 6 8 mph 1021.2mb 71f
10:42 6 8 mph 1021.1mb 70f
10:36 7 10 mph 1021mb 70f
10:30 7 9 mph 1021.1mb 70f
10:24 6 8 mph 1021mb 70f
10:18 6 8 mph 1021mb 70f
10:12 5 8 mph 1021mb 70f
10:06 6 8 mph 1021.1mb 70f
10:00 6 10 mph 1021mb 70f
9:54 7 11 mph 1021mb 70f
9:48 7 9 mph 1021.1mb 70f
9:42 6 9 mph 1021.2mb 69f
9:36 6 9 mph 1021.1mb 69f
9:30 6 8 mph 1021.1mb 70f
9:24 6 9 mph 1021.2mb 70f
9:18 6 8 mph 1021.2mb 70f
9:12 6 9 mph 1021.1mb 70f
9:06 6 9 mph 1021.1mb 70f
9:00 6 8 mph 1021mb 70f
8:42 6 7 mph 1020.9mb 70f
8:36 6 8 mph 1020.7mb 70f
8:30 6 8 mph 1020.7mb 70f
8:24 6 9 mph 1020.8mb 69f
8:18 6 7 mph 1020.8mb 69f
8:12 6 8 mph 1020.8mb 69f
8:06 5 8 mph 1020.8mb 69f
8:00 5 8 mph 1020.8mb 69f
7:54 7 9 mph 1020.9mb 69f
7:48 6 9 mph 1020.9mb 69f
7:42 6 9 mph 1020.8mb 69f
7:36 6 9 mph 1020.8mb 69f
7:30 6 9 mph 1020.8mb 69f
7:24 6 8 mph 1020.9mb 69f
7:18 6 8 mph 1020.9mb 68f
7:12 6 10 mph 1020.9mb 68f
7:06 5 9 mph 1020.8mb 68f
7:00 5 7 mph 1020.7mb 68f
6:54 5 6 mph 1020.7mb 68f
6:48 5 7 mph 1020.7mb 68f
6:42 5 6 mph 1020.7mb 68f
6:36 6 8 mph 1020.7mb 68f
6:30 5 7 mph 1020.7mb 68f
6:24 7 10 mph 1020.6mb 68f
6:18 7 8 mph 1020.6mb 68f
6:12 7 9 mph 1020.6mb 68f
6:06 6 9 mph 1020.5mb 68f
6:00 6 9 mph 1020.5mb 68f
5:54 6 9 mph 1020.4mb 68f
5:48 6 8 mph 1020.4mb 68f
5:42 5 7 mph 1020.4mb 68f
5:36 5 6 mph 1020.4mb 68f
5:30 3 6 mph 1020.4mb 68f
5:24 3 5 mph 1020.4mb 69f
5:18 2 5 mph 1020.3mb 69f
5:12 2 5 mph 1020.4mb 68f
5:06 3 6 mph 1020.3mb 69f
5:00 3 5 mph 1020.3mb 68f
4:54 2 5 mph 1020.4mb 68f
4:48 2 5 mph 1020.5mb 68f
4:42 3 5 mph 1020.4mb 68f
4:36 2 3 mph 1020.3mb 68f
4:30 2 3 mph 1020.3mb 68f
4:24 1 3 mph 1020.3mb 68f
4:18 1 3 mph 1020.2mb 68f
4:12 2 3 mph 1020.1mb 68f
4:06  -  2 mph 1020.1mb 68f
4:00 2 3 mph 1020.1mb 68f
3:54  -  2 mph 1020mb 68f
3:48  -  1 mph 1020.1mb 68f
3:42  -  2 mph 1020.2mb 68f
3:36  -  0 mph 1020.2mb 68f
3:30  -  0 mph 1020.4mb 68f
3:24  -  1 mph 1020.4mb 68f
3:18  -  1 mph 1020.3mb 68f
3:12  -  0 mph 1020.3mb 68f
3:06  -  2 mph 1020.2mb 68f
3:00  -  1 mph 1020.2mb 68f
2:54  -  0 mph 1020.2mb 68f
2:48  -  1 mph 1020.2mb -
2:42  -  2 mph 1020.2mb -
2:36 1 5 mph 1020.2mb -
2:30 2 5 mph 1020.2mb 68f
2:24 1 3 mph 1020.2mb 68f
2:18 2 3 mph 1020.4mb 68f
2:12 2 3 mph 1020.5mb 68f
2:06 2 3 mph 1020.5mb 68f
2:00 2 3 mph 1020.6mb 68f
1:54 3 6 mph 1020.6mb 68f
1:48 2 5 mph 1020.5mb 68f
1:42 1 3 mph 1020.5mb 68f
1:36  -  1 mph 1020.6mb 68f
1:30  -  2 mph 1020.7mb 68f
1:24  -  1 mph 1020.6mb 68f
1:18  -  0 mph 1020.6mb 68f
1:12  -  0 mph 1020.7mb 68f
1:06 2 3 mph 1020.8mb 68f
1:00 1 2 mph 1020.8mb 68f
12:54  -  2 mph 1020.7mb 68f
12:48 1 1 mph 1020.7mb 68f
12:42  -  1 mph 1020.6mb 67f
12:36  -  1 mph 1020.6mb 67f
12:30  -  1 mph 1020.6mb 67f
12:24 1 2 mph 1020.7mb 68f
12:18 1 2 mph 1020.6mb 67f
12:12  -  1 mph 1020.7mb 68f
12:06  -  1 mph 1020.8mb 67f
12:00 2 2 mph 1020.8mb 68f
So 09/17 11:54  -  1 mph 1020.8mb 67f
11:48  -  1 mph 1020.8mb 68f
11:42  -  1 mph 1020.8mb 68f
11:36  -  1 mph 1020.8mb 68f
11:30  -  2 mph 1020.8mb 68f
11:24  -  0 mph 1020.8mb 67f
11:18  -  2 mph 1020.8mb 67f
11:12 1 2 mph 1020.7mb 67f
11:06 2 2 mph 1020.7mb 67f
11:00  -  1 mph 1020.8mb 67f
10:54  -  1 mph 1020.9mb 67f
10:48 1 2 mph 1020.8mb 67f
10:42 2 3 mph 1020.8mb 67f
10:36 1 2 mph 1020.9mb 67f
10:30 2 3 mph 1020.9mb 67f
10:24 2 3 mph 1020.8mb 67f
10:18 1 2 mph 1020.8mb 67f
10:12  -  1 mph 1020.8mb 67f
10:06  -  2 mph 1020.9mb 67f
10:00  -  1 mph 1020.8mb 67f
9:54  -  1 mph 1020.9mb 67f
9:48 1 2 mph 1020.8mb -
9:42  -  2 mph 1020.9mb 67f
9:36 2 3 mph 1020.9mb 67f
9:30 1 3 mph 1021mb 67f
9:24 1 2 mph 1020.9mb 67f
9:18 2 3 mph 1020.9mb 67f
9:12 1 3 mph 1020.8mb 67f
9:06 1 2 mph 1020.8mb 67f
9:00 1 5 mph 1020.9mb 67f
8:54 2 5 mph 1020.8mb 67f
8:48 3 6 mph - -
8:42 1 2 mph 1020.7mb 67f
8:36 2 3 mph 1020.7mb 67f
8:30 2 5 mph 1020.6mb 67f
8:24 2 6 mph 1020.6mb 67f
8:18 2 5 mph 1020.6mb -
8:12 1 3 mph 1020.7mb 67f
8:06 2 5 mph 1020.6mb 67f
8:00 2 6 mph 1020.7mb 67f
7:54 3 7 mph 1020.7mb 67f
7:48 2 8 mph 1020.7mb -
7:42 1 3 mph 1020.6mb 67f
7:36 3 7 mph 1020.6mb 67f
7:30 3 9 mph 1020.5mb 67f
7:24 3 8 mph 1020.4mb 67f
7:18 3 7 mph 1020.3mb 67f
7:12 2 7 mph 1020.2mb 66f
7:06 3 6 mph 1020.2mb 67f
7:00 2 8 mph 1020.2mb 67f
6:54 6 10 mph 1020.3mb 67f
6:48 5 9 mph - -
6:42 2 6 mph 1020.6mb 66f
6:36 3 7 mph 1020.6mb 67f
6:30 3 7 mph 1020.6mb 67f
6:24 3 9 mph 1020.5mb 67f
6:18 5 9 mph 1020.5mb 67f
6:12 2 6 mph 1020.5mb 67f
6:06 2 7 mph 1020.4mb 67f
6:00 3 7 mph 1020.4mb 67f
5:54 5 10 mph 1020.4mb 67f
5:48 2 7 mph 1020.5mb 67f
5:42 5 9 mph 1020.6mb 67f
5:36 3 6 mph 1020.5mb 68f
5:30 2 7 mph 1020.5mb 68f
5:24 2 7 mph 1020.3mb 68f
5:18 5 9 mph 1020.3mb 68f
5:12 5 8 mph 1020.4mb 68f
5:06 5 10 mph 1020.5mb 69f
5:00 5 11 mph 1020.5mb 69f
4:54 6 10 mph 1020.5mb 70f
4:48 6 10 mph 1020.4mb 70f
4:42 6 9 mph 1020.4mb 70f
4:36 7 14 mph 1020.6mb 70f
4:30 6 13 mph 1020.5mb 71f
4:24 7 14 mph 1020.4mb 71f
4:18 6 13 mph 1020.5mb 70f
4:12 6 10 mph 1020.5mb 71f
4:06 6 10 mph 1020.5mb 71f
4:00 6 11 mph 1020.5mb 71f
3:54 5 10 mph 1020.5mb 71f
3:48 6 9 mph 1020.5mb 71f
3:42 6 14 mph 1020.5mb 72f
3:36 6 13 mph 1020.5mb 72f
3:30 6 17 mph 1020.5mb 71f
3:24 5 9 mph 1020.5mb 72f
3:18 7 14 mph 1020.5mb 73f
3:12 6 11 mph 1020.5mb 73f
3:06 5 8 mph 1020.5mb 75f
3:00 6 10 mph 1020.5mb 75f
2:54 6 10 mph 1020.6mb 74f
2:48 3 7 mph 1020.6mb 74f
2:42 5 8 mph 1020.6mb 75f
2:36 6 10 mph 1020.6mb 74f
2:30 6 9 mph 1020.6mb 74f
2:24 5 7 mph 1020.6mb 74f
2:18 5 6 mph 1020.6mb 74f
2:12 5 7 mph 1020.5mb 74f
2:06 3 6 mph 1020.6mb 74f
2:00 3 7 mph 1020.6mb 74f
1:54 3 6 mph 1020.7mb 74f
1:48 3 5 mph 1020.7mb 74f
1:42 3 6 mph 1020.7mb 74f
1:36 2 3 mph 1020.7mb 74f
1:30 3 5 mph 1020.7mb 73f
1:24 2 5 mph 1020.8mb 73f
1:18 2 3 mph 1020.8mb 74f
1:12 2 3 mph 1020.8mb 74f
1:06 1 2 mph 1020.7mb 74f
1:00  -  2 mph 1020.8mb 73f
12:54  -  2 mph 1020.9mb 72f
12:48  -  2 mph 1021mb 72f
12:42 1 2 mph 1021.1mb 70f
12:36 1 3 mph 1021.1mb 69f
12:30 2 5 mph 1021.2mb 69f
12:24 2 3 mph 1021.2mb 68f
12:18 1 3 mph 1021.2mb 69f
12:12 2 5 mph 1021.2mb 68f
12:06 2 3 mph 1021.2mb 68f
12:00 1 3 mph 1021.4mb 68f
11:54 2 3 mph 1021.3mb 68f
11:48 1 2 mph 1021.3mb 67f
11:42 2 3 mph 1021.4mb 67f
11:36 2 3 mph 1021.4mb 67f
11:30 2 3 mph 1021.4mb 67f
11:24 1 3 mph 1021.5mb 67f
11:18 2 3 mph 1021.5mb 67f
11:12 2 3 mph 1021.5mb 67f
11:06 2 3 mph 1021.5mb 67f
11:00 2 3 mph 1021.5mb 67f
10:54 2 3 mph 1021.6mb 66f
10:48 2 3 mph 1021.6mb 66f
10:42 2 3 mph 1021.6mb 66f
10:36 2 3 mph 1021.7mb 66f
10:30 2 3 mph 1021.7mb 66f
10:24 1 2 mph 1021.7mb 66f
10:18  -  1 mph 1021.8mb 66f
10:12  -  2 mph 1021.8mb 66f
10:06 2 3 mph 1021.8mb 66f
10:00 1 2 mph 1021.9mb 66f
9:54  -  2 mph 1022mb 66f
9:48  -  2 mph 1022mb 65f
9:42  -  2 mph 1022mb 65f
9:36 1 2 mph 1022mb 65f
9:30 1 3 mph 1022mb 65f
9:24  -  2 mph 1022mb 66f
9:18 1 2 mph 1022mb 66f
9:12  -  1 mph 1022mb 65f
9:06  -  2 mph 1022mb 65f
9:00 1 2 mph 1022mb 65f
8:54 1 3 mph 1022mb 65f
8:48 1 3 mph 1022mb 65f
8:42 2 3 mph 1022mb 65f
8:36 2 3 mph 1022mb 65f
8:30  -  1 mph 1022mb 65f
8:24 2 2 mph 1022mb 65f
8:18 2 5 mph 1021.9mb 65f
8:12 2 3 mph 1021.9mb 65f
8:06 1 2 mph 1021.8mb 65f
8:00 2 3 mph 1021.8mb 65f
7:54 2 3 mph 1021.9mb 65f
7:48  -  1 mph 1021.9mb 65f
7:42 2 5 mph 1021.9mb 65f
7:36  -  2 mph 1021.8mb 65f
7:30  -  1 mph 1021.8mb 65f
7:24  -  1 mph 1021.8mb 65f
7:18  -  1 mph 1021.7mb 65f
7:12  -  2 mph 1021.7mb 65f
7:06  -  1 mph 1021.7mb 65f
7:00  -  0 mph 1021.6mb 65f
6:54  -  1 mph 1021.5mb 65f
6:48  -  0 mph 1021.4mb 65f
6:42  -  1 mph 1021.5mb 65f
6:36  -  1 mph 1021.4mb 64f
6:30  -  0 mph 1021.4mb 64f
6:24  -  1 mph 1021.4mb 64f
6:18  -  1 mph 1021.4mb 64f
6:12  -  1 mph 1021.3mb 64f
6:06  -  0 mph 1021.3mb 64f
6:00  -  1 mph 1021.2mb 64f
5:54  -  1 mph 1021.1mb 64f
5:48  -  1 mph 1021mb 64f
5:42 2 2 mph 1021mb 64f
5:36  -  2 mph 1020.9mb 64f
5:30 1 3 mph 1020.9mb 64f
5:24 2 6 mph 1020.8mb 64f
5:18  -  2 mph 1020.8mb 64f
5:12 1 3 mph 1020.8mb 64f
5:06 1 2 mph 1020.8mb 64f
5:00  -  3 mph 1020.7mb 64f
4:54 2 3 mph 1020.7mb 64f
4:48 1 3 mph 1020.7mb 64f
4:42 2 3 mph 1020.7mb 64f
4:36 2 5 mph 1020.8mb 64f
4:30 2 6 mph 1020.9mb 64f
4:24 3 6 mph 1020.8mb 64f
4:18 3 6 mph 1020.9mb 64f
4:12 2 5 mph 1020.8mb 65f
4:06 3 6 mph 1020.8mb 65f
4:00 2 5 mph 1020.8mb 65f
3:54 3 7 mph 1020.7mb 65f
3:48 3 7 mph 1020.6mb 65f
3:42 3 8 mph 1020.7mb 64f
3:36 2 6 mph 1020.8mb 65f
3:30 2 6 mph 1020.8mb 65f
3:24 3 7 mph 1020.8mb 65f
3:18 5 9 mph 1020.9mb 65f
3:12 3 8 mph 1021mb 65f
3:06 1 5 mph 1021mb 65f
3:00 2 5 mph 1021mb 65f
2:54 2 6 mph 1020.9mb 65f
2:48 2 5 mph 1020.9mb 65f
2:42 2 5 mph 1020.9mb -
2:36 2 5 mph 1020.8mb -
2:30 3 6 mph 1020.8mb 65f
2:24 3 7 mph 1020.8mb 65f
2:18 2 6 mph 1020.9mb 65f
2:12 2 2 mph 1021mb 65f
2:06 2 5 mph 1020.9mb 65f
2:00  -  2 mph 1021mb 65f
1:54 2 3 mph 1021mb 65f
1:48 1 2 mph 1021mb 65f
1:42  -  1 mph 1021mb -
1:36 2 3 mph 1021mb -
1:30 2 5 mph 1021mb 65f
1:24 3 5 mph 1021mb 65f
1:18 1 3 mph 1021mb 65f
1:12 2 5 mph 1021mb 65f
1:06 2 6 mph 1021mb 65f
1:00 5 7 mph 1020.9mb 65f
12:54 3 6 mph 1020.9mb 65f
12:48 2 7 mph 1020.9mb 65f
12:42 3 7 mph 1020.9mb 65f
12:36 2 5 mph 1020.9mb 65f
12:30 3 6 mph 1021mb 65f
12:24 3 7 mph 1021mb 65f
12:18 3 7 mph 1020.9mb 65f
12:12 3 7 mph 1020.9mb 65f
12:06 2 5 mph 1020.8mb 65f
12:00 2 5 mph 1020.8mb 65f
Sa 09/16 11:54 2 6 mph 1020.8mb 65f
11:48 2 6 mph 1020.9mb 65f
11:42 2 6 mph 1020.9mb 65f
11:36 1 5 mph 1020.9mb 65f
11:30 1 3 mph 1020.9mb 65f
11:24 1 3 mph 1020.8mb 65f
11:18 2 6 mph 1020.9mb 65f
11:12 2 5 mph 1020.9mb 65f
11:06 1 5 mph 1021mb 65f
11:00 2 6 mph 1021mb 65f
10:54 1 3 mph 1021mb 65f
10:48 3 6 mph 1021mb 65f
10:42 2 5 mph 1021mb 65f
10:36  -  1 mph 1021mb 65f
10:30  -  1 mph 1021mb 65f
10:24  -  1 mph 1020.9mb 65f
10:18 1 3 mph - -
10:12 1 3 mph 1020.9mb 65f
10:06 1 5 mph 1020.8mb 65f
10:00  -  1 mph 1020.8mb 65f
9:54  -  1 mph 1020.8mb 65f
9:48  -  2 mph 1020.7mb 65f
9:42  -  2 mph 1020.7mb 66f
9:36  -  2 mph 1020.7mb 66f
9:30 1 2 mph 1020.7mb 66f
9:24 1 3 mph 1020.7mb 66f
9:18 1 3 mph 1020.8mb 66f
9:12 2 6 mph 1020.9mb 66f
9:06 1 5 mph 1021mb 66f
9:00  -  2 mph 1021mb 66f
8:54 1 3 mph 1021.1mb 66f
8:48 2 3 mph - -
8:42 3 6 mph 1021mb 66f
8:36 2 5 mph 1021mb 66f
8:30 2 5 mph 1021mb 66f
8:24 2 5 mph 1021mb 66f
8:18 2 6 mph 1021mb 66f
8:12 3 5 mph 1020.9mb 66f
8:06 2 5 mph 1021mb 66f
8:00 3 7 mph 1020.9mb 66f
7:54 3 6 mph 1020.9mb 66f
7:48 3 6 mph 1020.9mb -
7:42 3 7 mph 1020.9mb 66f
7:36 3 6 mph 1020.9mb 66f
7:30 2 6 mph 1020.9mb 67f
7:24 3 5 mph 1020.8mb 67f
7:18 3 6 mph - -
7:12 3 6 mph 1020.6mb 67f
7:06 3 6 mph 1020.5mb 67f
7:00 2 5 mph 1020.6mb 67f
6:54 3 7 mph 1020.6mb 67f
6:48 3 6 mph 1020.5mb 67f
6:42 3 6 mph 1020.5mb 67f
6:36 3 6 mph 1020.5mb 67f
6:30 2 6 mph 1020.6mb 68f
6:24 2 5 mph 1020.5mb 68f
6:18 2 6 mph 1020.5mb 69f
6:12 2 6 mph 1020.5mb 69f
6:06 3 7 mph 1020.5mb 69f
6:00 3 7 mph 1020.5mb 69f
5:54 3 7 mph 1020.5mb 69f
5:48 3 7 mph 1020.5mb 70f
5:42 3 7 mph 1020.4mb 70f
5:36 6 9 mph 1020.4mb 70f
5:30 5 8 mph 1020.4mb 69f
5:24 5 9 mph 1020.4mb 69f
5:18 5 11 mph 1020.4mb 69f
5:12 7 13 mph 1020.4mb 69f
5:06 6 10 mph 1020.5mb 69f
5:00 6 10 mph 1020.5mb 69f
4:54 5 9 mph 1020.5mb 69f
4:48 7 14 mph 1020.5mb 70f
4:42 6 15 mph 1020.5mb 70f
4:36 7 13 mph 1020.4mb 71f
4:30 7 13 mph 1020.4mb 71f
4:24 7 13 mph 1020.4mb 72f
4:18 7 17 mph 1020.4mb 72f
4:12 6 13 mph 1020.3mb 73f
4:06 6 10 mph 1020.4mb 73f
4:00 7 11 mph 1020.4mb 74f
3:54 6 10 mph 1020.4mb 74f
3:48 6 10 mph 1020.4mb 75f
3:42 7 11 mph 1020.4mb 75f
3:36 6 10 mph 1020.3mb 74f
3:30 6 10 mph 1020.3mb 75f
3:24 5 8 mph 1020.2mb 75f
3:18 5 9 mph 1020.2mb 75f
3:12 3 7 mph 1020.2mb 76f
3:06 5 7 mph 1020.3mb 76f
3:00 5 9 mph 1020.3mb 75f
2:54 3 7 mph 1020.3mb 75f
2:48 3 6 mph 1020.4mb 76f
2:42 5 9 mph 1020.4mb 76f
2:36 3 6 mph 1020.4mb 77f
2:30 2 7 mph 1020.4mb 77f
2:24 2 3 mph 1020.4mb 76f
2:18 2 5 mph 1020.5mb 76f
2:12 3 6 mph 1020.5mb 76f
2:06 3 6 mph 1020.6mb 75f
2:00 3 7 mph 1020.6mb 75f
1:54 6 7 mph 1020.6mb 74f
1:48 3 5 mph 1020.7mb 74f
1:42 1 3 mph 1020.7mb 77f
1:36 3 6 mph 1020.8mb 77f
1:30 2 5 mph 1020.9mb 76f
1:24 2 5 mph 1020.9mb 77f
1:18 2 5 mph 1020.9mb 77f
1:12 2 6 mph 1021mb 76f
1:06  -  2 mph 1021.1mb 76f
1:00 1 3 mph 1021.2mb 75f
12:54 2 3 mph 1021.2mb 74f
12:48 1 2 mph 1021.3mb 74f
12:42 2 3 mph 1021.3mb 74f
12:36 2 3 mph 1021.3mb 74f
12:30 2 3 mph 1021.3mb 74f
12:24 3 5 mph 1021.4mb 73f
12:18 3 5 mph 1021.5mb 73f
12:12 2 5 mph 1021.5mb 73f
12:06 2 3 mph 1021.5mb 74f
12:00 2 3 mph 1021.6mb 73f
11:54 1 3 mph 1021.6mb 73f
11:48 1 3 mph 1021.6mb 74f
11:42  -  3 mph 1021.6mb 74f
11:36 1 2 mph 1021.7mb 74f
11:30  -  3 mph 1021.8mb 74f
11:24  -  2 mph 1021.7mb 73f
11:18 2 2 mph 1021.7mb 72f
11:12 2 3 mph 1021.6mb 71f
11:06 2 3 mph 1021.5mb 71f
11:00 2 3 mph 1021.5mb 71f
10:54 3 6 mph 1021.6mb 71f
10:48 5 6 mph 1021.6mb 71f
10:42 3 6 mph 1021.6mb 72f
10:36 3 6 mph 1021.7mb 71f
10:30 3 6 mph 1021.7mb 71f
10:24 3 6 mph 1021.7mb 71f
10:18 2 3 mph 1021.7mb 70f
10:12 1 2 mph 1021.7mb 70f
10:06 1 3 mph 1021.8mb 70f
10:00 2 3 mph 1022mb 70f
9:54 2 5 mph 1022mb 70f
9:48 2 3 mph 1022mb 70f
9:42 2 6 mph 1021.9mb 70f
9:36 3 5 mph 1021.8mb 69f
9:30 3 5 mph 1021.8mb 69f
9:24 3 6 mph 1021.9mb 69f
9:18 2 5 mph 1021.9mb 69f
9:12 3 6 mph 1021.8mb 69f
9:06 3 5 mph 1021.8mb 68f
9:00 2 5 mph 1021.8mb 68f
8:54 2 5 mph 1021.8mb 68f
8:48 2 5 mph 1021.7mb 67f
8:42 3 6 mph 1021.7mb 67f
8:36 2 5 mph 1021.7mb 68f
8:30 5 6 mph 1021.7mb 67f
8:24 5 6 mph 1021.6mb 67f
8:18 2 5 mph 1021.5mb 67f
8:12 3 6 mph 1021.5mb 67f
8:06 3 6 mph 1021.5mb 66f
8:00 3 6 mph 1021.5mb 67f
7:54 3 6 mph 1021.4mb 67f
7:48 5 7 mph 1021.4mb 67f
7:42 7 9 mph 1021.4mb 66f
7:36 7 10 mph 1021.4mb 66f
7:30 6 9 mph 1021.3mb 66f
7:24 3 6 mph 1021.2mb 67f
7:18 2 3 mph 1021.2mb 66f
7:12 2 3 mph 1021.1mb 66f
7:06 2 3 mph 1021.1mb 66f
7:00 1 2 mph 1021.1mb 65f
6:54 1 3 mph 1021mb 65f
6:48 1 3 mph 1021.1mb 65f
6:42 2 3 mph 1021mb 65f
6:36  -  1 mph 1020.8mb 65f
6:30  -  1 mph 1020.7mb 65f
6:24 1 2 mph 1020.6mb 65f
6:18  -  0 mph 1020.5mb 65f
6:12  -  0 mph 1020.5mb 65f
6:06  -  0 mph 1020.5mb 65f
6:00  -  0 mph 1020.5mb 65f
5:54  -  1 mph 1020.4mb 65f
5:48  -  0 mph 1020.3mb 65f
5:42  -  0 mph 1020.2mb 65f
5:36 1 2 mph 1020.3mb 65f
5:30  -  1 mph 1020.2mb 65f
5:24  -  1 mph 1020.1mb 65f
5:18  -  0 mph 1020.1mb 65f
5:12  -  1 mph 1020.1mb 65f
5:06  -  0 mph 1020.1mb 65f
5:00  -  1 mph 1020.1mb 65f
4:54  -  1 mph 1020.1mb 65f
4:48  -  0 mph 1020mb 65f
4:42 1 2 mph 1020mb 65f
4:36  -  2 mph 1019.9mb 65f
4:30 2 3 mph 1020mb 65f
4:24 2 3 mph 1020mb 65f
4:18 3 5 mph 1019.9mb 66f
4:12  -  2 mph 1019.9mb 66f
4:06 2 3 mph 1019.8mb 66f
4:00  -  1 mph 1019.8mb 66f
3:54 2 3 mph 1019.8mb 66f
3:48 2 3 mph 1019.7mb 66f
3:42 2 3 mph 1019.7mb 66f
3:36 2 3 mph 1019.6mb 67f
3:30 3 5 mph 1019.7mb 67f
3:24 2 5 mph 1019.7mb 67f
3:18 3 5 mph 1019.7mb 67f
3:12 3 5 mph 1019.7mb 67f
3:06 1 2 mph 1019.6mb 67f
3:00 3 5 mph 1019.6mb 67f
2:54  -  3 mph 1019.6mb 67f
2:48  -  2 mph - -
2:42 5 7 mph 1019.5mb 67f
2:36 6 7 mph 1019.5mb 67f
2:30 3 8 mph 1019.5mb 67f
2:24 3 6 mph 1019.5mb 67f
2:18 3 8 mph 1019.6mb 67f
2:12 3 6 mph 1019.7mb 67f
2:06 3 6 mph 1019.7mb 67f
2:00 2 3 mph 1019.8mb 67f
1:54 3 5 mph 1019.7mb 67f
1:48 2 5 mph 1019.8mb 67f
1:42 1 3 mph 1019.8mb 67f
1:36 2 5 mph 1019.8mb 67f
1:30 2 5 mph 1019.9mb 67f
1:24 1 2 mph 1019.9mb 67f
1:18  -  1 mph 1019.9mb 67f
1:12  -  1 mph 1019.9mb 67f
1:06 1 2 mph 1019.9mb 68f
1:00  -  2 mph 1020mb 68f
12:54 1 2 mph 1020mb 68f
12:48 2 5 mph 1020mb 68f
12:42 2 2 mph 1020mb 68f
12:36 3 5 mph 1020mb 68f
12:30 2 5 mph 1020mb 68f
12:24 3 6 mph 1020mb 68f
12:18 2 3 mph 1019.9mb 68f
12:12 2 6 mph 1019.9mb 68f
12:06 2 6 mph 1019.9mb 68f
12:00 2 5 mph 1019.9mb 68f
Fr 09/15 11:54 2 5 mph 1019.9mb 68f
11:48 2 3 mph 1019.9mb 68f
11:42 2 3 mph 1019.8mb 68f
11:36 1 2 mph 1019.8mb 68f
11:30 2 5 mph 1019.8mb 68f
11:24 2 6 mph 1019.8mb 68f
11:18 3 6 mph 1019.8mb 68f
11:12 5 7 mph 1019.7mb 68f
11:06 3 7 mph 1019.7mb 68f
11:00 2 6 mph 1019.6mb 68f
10:54 3 5 mph 1019.6mb 68f
10:48 2 5 mph 1019.6mb 68f
10:42 2 5 mph 1019.6mb 68f
10:36 2 5 mph 1019.6mb 68f
10:30 2 3 mph 1019.6mb 68f
10:24 1 2 mph 1019.6mb 68f
10:18 1 3 mph 1019.7mb 68f
10:12 1 3 mph 1019.7mb 68f
10:06 1 3 mph 1019.7mb 68f
10:00 1 3 mph 1019.7mb 68f
9:54  -  2 mph 1019.6mb 68f
9:48 2 3 mph 1019.6mb -
9:42 2 3 mph 1019.6mb 69f
9:36 1 3 mph 1019.5mb 69f
9:30 2 5 mph 1019.5mb 68f
9:24 2 3 mph 1019.5mb 69f
9:18  -  2 mph - -
9:12 2 5 mph 1019.4mb 69f
9:06 2 5 mph 1019.3mb 69f
9:00 3 7 mph 1019.3mb 69f
8:54 3 6 mph 1019.4mb 69f
8:48 3 6 mph 1019.5mb 69f
8:42 3 6 mph 1019.4mb 69f
8:36 2 6 mph 1019.3mb 69f
8:30 3 5 mph 1019.3mb 69f
8:24 3 7 mph 1019.2mb 69f
8:18 5 8 mph - -
8:12 2 6 mph 1019.1mb 69f
8:06 3 6 mph 1019.1mb 69f
8:00 3 7 mph 1019.1mb 70f
7:54 2 6 mph 1019.1mb 70f
7:48 3 8 mph 1019mb 70f
7:42 5 9 mph 1018.9mb 70f
7:36 3 7 mph 1018.8mb 70f
7:30 3 7 mph 1018.7mb 70f
7:24 3 8 mph 1018.6mb 70f
7:18 5 8 mph - -
7:12 3 9 mph 1018.4mb 71f
7:06 3 7 mph 1018.4mb 71f
7:00 3 7 mph 1018.5mb 71f
6:54 5 8 mph 1018.4mb 71f
6:48 3 7 mph 1018.4mb 72f
6:42 3 7 mph 1018.4mb 72f
6:36 2 6 mph 1018.3mb 72f
6:30 3 8 mph 1018.2mb 72f
6:24 3 6 mph 1018.3mb 73f
6:18 5 10 mph - -
6:12 5 10 mph 1018.2mb 73f
6:06 3 10 mph 1018.1mb 73f
6:00 5 11 mph 1018.1mb 74f
5:54 6 14 mph 1018mb 74f
5:48 6 14 mph 1018mb 74f
5:42 6 11 mph 1017.9mb 74f
5:36 7 11 mph 1017.9mb 74f
5:30 6 11 mph 1017.8mb 75f
5:24 6 11 mph 1017.7mb 75f
5:18 6 13 mph 1017.7mb 75f
5:12 6 11 mph 1017.7mb 75f
5:06 6 11 mph 1017.6mb 75f
5:00 7 11 mph 1017.6mb 75f
4:54 6 11 mph 1017.6mb 75f
4:48 5 11 mph 1017.6mb 76f
4:42 6 13 mph 1017.5mb 76f
4:36 6 11 mph 1017.5mb 76f
4:30 6 10 mph 1017.5mb 76f
4:24 5 10 mph 1017.5mb 76f
4:18 6 13 mph 1017.4mb 76f
4:12 7 14 mph 1017.4mb 76f
4:06 5 9 mph 1017.5mb 76f
4:00 6 11 mph 1017.4mb 77f
3:54 6 10 mph 1017.4mb 78f
3:48 6 10 mph 1017.4mb 77f
3:42 5 13 mph 1017.4mb 77f
3:36 5 13 mph 1017.4mb 77f
3:30 6 10 mph 1017.3mb 77f
3:24 6 10 mph 1017.4mb 77f
3:18 6 14 mph 1017.4mb 76f
3:12 7 11 mph 1017.4mb 76f
3:06 7 13 mph 1017.3mb 75f
3:00 7 14 mph 1017.4mb 75f
2:54 6 14 mph 1017.3mb 75f
2:48 7 13 mph 1017.3mb 75f
2:42 8 16 mph 1017.3mb 74f
2:36 9 16 mph 1017.3mb 74f
2:30 8 15 mph 1017.3mb 74f
2:24 7 13 mph 1017.4mb 75f
2:18 9 16 mph 1017.4mb 74f
2:12 9 17 mph 1017.4mb 74f
2:06 6 11 mph 1017.4mb 75f
2:00 5 10 mph 1017.4mb 76f
1:54 5 11 mph 1017.4mb 76f
1:48 7 14 mph 1017.5mb 77f
1:42 6 13 mph 1017.5mb 77f
1:36 6 11 mph 1017.5mb 77f
1:30 6 14 mph 1017.4mb 77f
1:24 6 10 mph 1017.5mb 76f
1:18 8 13 mph 1017.6mb 76f
1:12 6 11 mph 1017.7mb 75f
1:06 7 13 mph 1017.7mb 75f
1:00 6 9 mph 1017.8mb 76f
12:54 7 14 mph 1017.8mb 76f
12:48 6 11 mph 1017.7mb 75f
12:42 7 11 mph 1017.8mb 76f
12:36 5 8 mph 1017.8mb 76f
12:30 6 11 mph 1017.8mb 76f
12:24 3 8 mph 1017.8mb 76f
12:18 2 5 mph 1017.9mb 77f
12:12 2 5 mph 1017.9mb 78f
12:06 3 6 mph 1018mb 77f
12:00 5 7 mph 1018mb 76f
11:54 3 6 mph 1018.2mb 74f
11:48 3 7 mph 1018.2mb 74f
11:42 3 6 mph 1018.2mb 74f